Time;durP1;ratioP1;P1;durP2;ratioP2;P2;SDS_P1;SDS_P2;PMS_P1;PMS_P2;Temp;Humidity;BMP_temperature;BMP_pressure;BME280_temperature;BME280_humidity;BME280_pressure;Samples;Min_cycle;Max_cycle;Signal;HPM_P1;HPM_P2
2023/10/21 00:00:22;;;;;;;6.82;3.58;;;11.80;99.90;;;;;;5064071;28;20072;-44
2023/10/21 00:02:50;;;;;;;7.15;3.75;;;11.70;99.90;;;;;;5063359;28;20102;-34
2023/10/21 00:05:16;;;;;;;8.52;3.40;;;11.70;99.90;;;;;;5061885;28;20363;-34
2023/10/21 00:07:42;;;;;;;12.07;4.32;;;11.70;99.90;;;;;;5066087;28;20070;-34
2023/10/21 00:10:08;;;;;;;7.13;3.25;;;11.70;99.90;;;;;;5065100;28;20486;-34
2023/10/21 00:12:35;;;;;;;8.88;3.30;;;11.70;99.90;;;;;;5067893;28;20048;-35
2023/10/21 00:15:01;;;;;;;6.10;2.97;;;11.60;99.90;;;;;;5065750;28;20056;-34
2023/10/21 00:17:30;;;;;;;7.38;3.22;;;11.60;99.90;;;;;;5064846;28;20143;-34
2023/10/21 00:19:56;;;;;;;13.65;3.72;;;11.50;99.90;;;;;;5068214;28;20376;-45
2023/10/21 00:22:21;;;;;;;7.72;2.95;;;11.50;99.90;;;;;;5041987;28;20139;-35
2023/10/21 00:24:47;;;;;;;6.57;2.95;;;11.50;99.90;;;;;;5066156;28;20060;-35
2023/10/21 00:27:13;;;;;;;5.63;2.72;;;11.50;99.90;;;;;;5057051;28;20053;-35
2023/10/21 00:29:39;;;;;;;8.35;3.80;;;11.40;99.90;;;;;;5056989;28;20541;-35
2023/10/21 00:32:05;;;;;;;8.15;3.17;;;11.40;99.90;;;;;;5060176;28;20052;-36
2023/10/21 00:34:31;;;;;;;8.13;3.72;;;11.40;99.90;;;;;;5065477;28;20391;-35
2023/10/21 00:36:57;;;;;;;6.43;2.40;;;11.40;99.90;;;;;;5065121;28;20064;-35
2023/10/21 00:39:23;;;;;;;6.38;2.65;;;11.30;99.90;;;;;;5059099;28;20063;-35
2023/10/21 00:41:48;;;;;;;7.60;2.72;;;11.30;99.90;;;;;;5062586;28;20068;-35
2023/10/21 00:44:14;;;;;;;8.15;2.72;;;11.30;99.90;;;;;;5054086;28;20067;-34
2023/10/21 00:46:41;;;;;;;9.52;3.38;;;11.30;99.90;;;;;;5060212;28;20051;-35
2023/10/21 00:49:06;;;;;;;7.60;3.00;;;11.30;99.90;;;;;;5063725;28;20561;-35
2023/10/21 00:51:33;;;;;;;7.95;3.22;;;11.30;99.90;;;;;;5057125;28;20064;-35
2023/10/21 00:54:00;;;;;;;7.20;3.10;;;11.30;99.90;;;;;;5050355;28;20052;-35
2023/10/21 00:56:27;;;;;;;7.63;3.05;;;11.30;99.90;;;;;;5063765;28;20482;-35
2023/10/21 00:58:53;;;;;;;6.38;2.58;;;11.20;99.90;;;;;;5061616;28;20131;-35
2023/10/21 01:01:19;;;;;;;6.47;3.00;;;11.20;99.90;;;;;;5059405;28;20406;-34
2023/10/21 01:03:45;;;;;;;7.32;3.38;;;11.20;99.90;;;;;;5051301;28;20048;-34
2023/10/21 01:06:11;;;;;;;8.30;3.45;;;11.20;99.90;;;;;;5058501;28;20132;-35
2023/10/21 01:08:44;;;;;;;11.45;3.53;;;11.20;99.90;;;;;;5060730;28;20057;-34
2023/10/21 01:11:10;;;;;;;7.18;3.17;;;11.20;99.90;;;;;;5054573;28;20124;-35
2023/10/21 01:13:36;;;;;;;8.48;3.70;;;11.10;99.90;;;;;;5049055;28;20152;-35
2023/10/21 01:16:02;;;;;;;10.48;3.42;;;11.10;99.90;;;;;;5055265;28;20136;-35
2023/10/21 01:18:33;;;;;;;7.45;3.80;;;11.10;99.90;;;;;;5055858;28;20045;-35
2023/10/21 01:21:02;;;;;;;6.47;3.33;;;11.00;99.90;;;;;;5055436;28;20060;-34
2023/10/21 01:23:29;;;;;;;7.13;3.53;;;11.00;99.90;;;;;;5050454;28;20072;-35
2023/10/21 01:25:54;;;;;;;7.85;3.20;;;11.00;99.90;;;;;;5085049;28;20056;-35
2023/10/21 01:28:20;;;;;;;6.63;3.20;;;11.00;99.90;;;;;;5085522;28;20050;-35
2023/10/21 01:30:46;;;;;;;5.60;2.80;;;10.90;99.90;;;;;;5082197;28;20079;-34
2023/10/21 01:33:12;;;;;;;6.90;2.88;;;11.00;99.90;;;;;;5089179;28;20056;-34
2023/10/21 01:35:37;;;;;;;8.27;3.15;;;11.00;99.90;;;;;;5087223;28;20520;-35
2023/10/21 01:38:03;;;;;;;8.13;3.50;;;11.00;99.90;;;;;;5080737;28;20100;-35
2023/10/21 01:40:29;;;;;;;12.00;3.10;;;11.00;99.90;;;;;;5079265;28;20044;-35
2023/10/21 01:42:54;;;;;;;4.97;2.75;;;10.90;99.90;;;;;;5081467;28;20071;-34
2023/10/21 01:45:20;;;;;;;5.22;2.88;;;10.90;99.90;;;;;;5079678;28;20055;-35
2023/10/21 01:47:46;;;;;;;9.45;3.50;;;10.90;99.90;;;;;;5083780;28;20078;-35
2023/10/21 01:50:11;;;;;;;7.43;3.15;;;10.90;99.90;;;;;;5080792;28;20048;-36
2023/10/21 01:52:38;;;;;;;6.97;2.80;;;10.90;99.90;;;;;;5082638;28;20504;-35
2023/10/21 01:55:08;;;;;;;6.72;3.00;;;10.90;99.90;;;;;;5088307;28;20047;-35
2023/10/21 01:57:34;;;;;;;8.00;3.38;;;10.90;99.90;;;;;;5077416;28;20056;-35
2023/10/21 02:00:01;;;;;;;7.32;2.58;;;10.90;99.90;;;;;;5080167;28;20494;-35
2023/10/21 02:02:28;;;;;;;6.93;3.20;;;10.80;99.90;;;;;;5077007;28;20147;-35
2023/10/21 02:04:53;;;;;;;8.55;3.17;;;10.80;99.90;;;;;;5086804;28;20405;-35
2023/10/21 02:07:19;;;;;;;7.22;3.15;;;10.80;99.90;;;;;;5088236;28;20039;-35
2023/10/21 02:09:45;;;;;;;6.90;3.05;;;10.80;99.90;;;;;;5082750;28;21685;-42
2023/10/21 02:12:12;;;;;;;10.48;4.70;;;10.80;99.90;;;;;;5081518;28;20057;-35
2023/10/21 02:14:37;;;;;;;9.85;3.78;;;10.80;99.90;;;;;;5082409;28;20066;-35
2023/10/21 02:17:03;;;;;;;8.05;3.85;;;10.80;99.90;;;;;;5080487;28;20055;-35
2023/10/21 02:19:28;;;;;;;9.07;4.20;;;10.80;99.90;;;;;;5084766;28;20052;-35
2023/10/21 02:21:54;;;;;;;8.68;4.28;;;10.80;99.90;;;;;;5080936;28;20065;-37
2023/10/21 02:24:20;;;;;;;8.05;3.95;;;10.80;99.90;;;;;;5083754;28;20076;-35
2023/10/21 02:26:45;;;;;;;11.20;5.50;;;10.80;99.90;;;;;;5080864;28;20960;-39
2023/10/21 02:29:11;;;;;;;10.55;4.40;;;10.90;99.90;;;;;;5082547;28;20063;-35
2023/10/21 02:31:37;;;;;;;14.30;5.78;;;10.80;99.90;;;;;;5080647;28;20064;-35
2023/10/21 02:34:03;;;;;;;13.63;5.53;;;10.90;99.90;;;;;;5087743;28;20055;-35
2023/10/21 02:36:29;;;;;;;11.15;5.28;;;10.90;99.90;;;;;;5085655;28;20043;-35
2023/10/21 02:38:54;;;;;;;10.38;5.95;;;10.90;99.90;;;;;;5081335;28;20048;-35
2023/10/21 02:41:20;;;;;;;11.60;5.75;;;10.90;99.90;;;;;;5083819;28;20123;-35
2023/10/21 02:43:47;;;;;;;12.25;5.35;;;10.90;99.90;;;;;;5081071;28;20047;-34
2023/10/21 02:46:13;;;;;;;10.23;6.20;;;10.80;99.90;;;;;;5084094;28;20079;-35
2023/10/21 02:48:40;;;;;;;10.77;5.68;;;10.80;99.90;;;;;;5089254;28;20044;-35
2023/10/21 02:51:18;;;;;;;15.48;6.38;;;10.80;99.90;;;;;;5079269;28;20048;-35
2023/10/21 02:53:44;;;;;;;13.75;6.28;;;10.80;99.90;;;;;;5084392;28;20577;-35
2023/10/21 02:56:13;;;;;;;11.55;5.88;;;10.70;99.90;;;;;;5086095;28;20074;-35
2023/10/21 02:58:39;;;;;;;13.38;6.72;;;10.80;99.90;;;;;;5084847;28;20056;-35
2023/10/21 03:01:31;;;;;;;13.77;6.82;;;10.80;99.90;;;;;;5089227;28;20117;-42
2023/10/21 03:03:57;;;;;;;12.70;6.80;;;10.80;99.90;;;;;;5085342;28;20078;-35
2023/10/21 03:06:23;;;;;;;14.35;7.28;;;10.80;99.90;;;;;;5084335;28;20565;-34
2023/10/21 03:08:48;;;;;;;15.00;6.82;;;10.80;99.90;;;;;;5088552;28;20048;-35
2023/10/21 03:11:14;;;;;;;18.73;7.07;;;10.70;99.90;;;;;;5082377;28;21647;-35
2023/10/21 03:13:40;;;;;;;15.45;7.03;;;10.70;99.90;;;;;;5083782;28;20050;-35
2023/10/21 03:16:07;;;;;;;15.18;7.88;;;10.70;99.90;;;;;;5079612;28;20516;-34
2023/10/21 03:18:35;;;;;;;13.95;6.50;;;10.70;99.90;;;;;;5090773;28;20055;-35
2023/10/21 03:21:00;;;;;;;13.77;6.95;;;10.70;99.90;;;;;;5083640;28;20098;-35
2023/10/21 03:23:26;;;;;;;19.15;7.70;;;10.70;99.90;;;;;;5086421;28;20487;-35
2023/10/21 03:25:55;;;;;;;13.98;6.82;;;10.60;99.90;;;;;;5085169;28;20508;-36
2023/10/21 03:28:26;;;;;;;16.42;7.60;;;10.60;99.90;;;;;;5067969;28;20048;-35
2023/10/21 03:30:58;;;;;;;14.32;7.55;;;10.60;99.90;;;;;;5085328;28;20059;-34
2023/10/21 03:33:25;;;;;;;14.93;6.85;;;10.70;99.90;;;;;;5081731;28;20082;-37
2023/10/21 03:36:01;;;;;;;15.82;7.75;;;10.60;99.90;;;;;;5083686;28;20044;-35
2023/10/21 03:38:27;;;;;;;17.10;6.65;;;10.60;99.90;;;;;;5087768;28;20459;-35
2023/10/21 03:40:59;;;;;;;13.50;7.43;;;10.60;99.90;;;;;;5082820;28;20056;-35
2023/10/21 03:43:25;;;;;;;;;;;10.60;99.90;;;;;;5087826;28;20398;-35
2023/10/21 03:45:52;;;;;;;17.77;8.45;;;10.60;99.90;;;;;;5087291;28;19923;-35
2023/10/21 03:48:17;;;;;;;19.45;8.27;;;10.60;99.90;;;;;;5087887;28;20072;-35
2023/10/21 03:50:43;;;;;;;11.73;6.55;;;10.60;99.90;;;;;;5089181;28;20075;-35
2023/10/21 03:53:09;;;;;;;16.38;8.00;;;10.60;99.90;;;;;;5089378;28;20125;-34
2023/10/21 03:55:34;;;;;;;19.98;7.97;;;10.70;99.90;;;;;;5089152;28;20048;-35
2023/10/21 03:58:00;;;;;;;15.73;8.10;;;10.70;99.90;;;;;;5080662;28;20048;-35
2023/10/21 04:00:25;;;;;;;18.35;8.95;;;10.70;99.90;;;;;;5086415;28;20063;-35
2023/10/21 04:02:51;;;;;;;15.45;8.00;;;10.70;99.90;;;;;;5083658;28;20056;-35
2023/10/21 04:05:17;;;;;;;16.90;7.35;;;10.70;99.90;;;;;;5083832;28;20576;-35
2023/10/21 04:07:44;;;;;;;17.35;8.15;;;10.70;99.90;;;;;;5083798;28;20521;-35
2023/10/21 04:10:10;;;;;;;17.50;9.00;;;10.70;99.90;;;;;;5084187;28;20152;-35
2023/10/21 04:12:36;;;;;;;18.90;9.18;;;10.70;99.90;;;;;;5080959;28;20052;-43
2023/10/21 04:15:03;;;;;;;18.15;8.70;;;10.70;99.90;;;;;;5083998;28;20044;-35
2023/10/21 04:17:29;;;;;;;17.27;9.32;;;10.70;99.90;;;;;;5086996;28;20131;-35
2023/10/21 04:19:54;;;;;;;18.10;9.55;;;10.70;99.90;;;;;;5085246;28;20151;-34
2023/10/21 04:22:20;;;;;;;15.45;8.25;;;10.70;99.90;;;;;;5084453;28;20063;-37
2023/10/21 04:24:46;;;;;;;20.02;9.73;;;10.70;99.90;;;;;;5087621;28;20060;-35
2023/10/21 04:27:11;;;;;;;17.90;9.32;;;10.70;99.90;;;;;;5079860;28;20109;-35
2023/10/21 04:29:37;;;;;;;19.38;9.63;;;10.70;99.90;;;;;;5082195;28;20060;-40
2023/10/21 04:32:03;;;;;;;19.98;9.05;;;10.70;99.90;;;;;;5087886;28;20056;-35
2023/10/21 04:34:28;;;;;;;22.00;9.07;;;10.70;99.90;;;;;;5072409;28;20044;-35
2023/10/21 04:36:54;;;;;;;21.42;9.52;;;10.70;99.90;;;;;;5088002;28;20409;-35
2023/10/21 04:39:19;;;;;;;15.98;9.05;;;10.60;99.90;;;;;;5079427;28;20048;-35
2023/10/21 04:41:48;;;;;;;19.17;9.13;;;10.60;99.90;;;;;;5083332;28;20059;-34
2023/10/21 04:44:14;;;;;;;19.70;9.18;;;10.60;99.90;;;;;;5080556;28;20052;-35
2023/10/21 04:46:39;;;;;;;18.90;9.57;;;10.60;99.90;;;;;;5081257;28;20056;-38
2023/10/21 04:49:05;;;;;;;19.50;9.32;;;10.60;99.90;;;;;;5086013;28;20111;-35
2023/10/21 04:51:31;;;;;;;22.08;9.38;;;10.70;99.90;;;;;;5082190;28;20055;-35
2023/10/21 04:53:57;;;;;;;21.48;9.20;;;10.70;99.90;;;;;;5089596;28;20439;-35
2023/10/21 04:56:24;;;;;;;15.43;8.38;;;10.70;99.90;;;;;;5087478;28;20138;-35
2023/10/21 04:58:50;;;;;;;16.90;8.57;;;10.60;99.90;;;;;;5081460;28;20126;-42
2023/10/21 05:01:16;;;;;;;17.92;9.05;;;10.60;99.90;;;;;;5082828;28;20506;-35
2023/10/21 05:03:43;;;;;;;18.02;8.38;;;10.70;99.90;;;;;;5081714;28;20100;-43
2023/10/21 05:06:10;;;;;;;16.60;8.63;;;10.70;99.90;;;;;;5086668;28;20051;-35
2023/10/21 05:08:36;;;;;;;15.85;8.73;;;10.70;99.90;;;;;;5082706;28;20126;-35
2023/10/21 05:11:01;;;;;;;17.08;8.43;;;10.70;99.90;;;;;;5078816;28;20075;-35
2023/10/21 05:13:27;;;;;;;14.93;7.75;;;10.70;99.90;;;;;;5079532;28;20095;-36
2023/10/21 05:15:53;;;;;;;14.45;7.78;;;10.70;99.90;;;;;;5066556;28;20137;-35
2023/10/21 05:18:20;;;;;;;15.48;8.75;;;10.70;99.90;;;;;;5078455;28;20077;-35
2023/10/21 05:20:46;;;;;;;14.55;7.32;;;10.70;99.90;;;;;;5082224;28;20526;-35
2023/10/21 05:23:11;;;;;;;15.25;8.05;;;10.70;99.90;;;;;;5081401;28;20044;-35
2023/10/21 05:25:37;;;;;;;14.95;8.15;;;10.70;99.90;;;;;;5056154;28;20045;-35
2023/10/21 05:28:03;;;;;;;17.60;9.02;;;10.70;99.90;;;;;;5065801;28;20033;-35
2023/10/21 05:30:29;;;;;;;14.75;8.00;;;10.70;99.90;;;;;;5048392;28;20080;-36
2023/10/21 05:32:54;;;;;;;15.52;8.02;;;10.70;99.90;;;;;;5065884;28;20041;-35
2023/10/21 05:35:21;;;;;;;15.13;7.63;;;10.70;99.90;;;;;;5049901;28;20151;-34
2023/10/21 05:37:47;;;;;;;15.90;7.97;;;10.70;99.90;;;;;;5065531;28;20452;-35
2023/10/21 05:40:12;;;;;;;16.08;7.93;;;10.70;99.90;;;;;;5062961;28;20094;-36
2023/10/21 05:42:38;;;;;;;13.23;7.45;;;10.70;99.90;;;;;;5064182;28;20059;-35
2023/10/21 05:45:04;;;;;;;14.32;7.68;;;10.70;99.90;;;;;;5063079;28;20087;-35
2023/10/21 05:47:30;;;;;;;11.40;6.57;;;10.80;99.90;;;;;;5063163;28;20048;-35
2023/10/21 05:49:55;;;;;;;14.00;7.35;;;10.80;99.90;;;;;;5066035;28;20093;-35
2023/10/21 05:52:21;;;;;;;11.63;6.60;;;10.80;99.90;;;;;;5061079;28;20048;-35
2023/10/21 05:54:47;;;;;;;12.35;7.50;;;10.70;99.90;;;;;;5062927;28;20514;-35
2023/10/21 05:57:13;;;;;;;21.00;7.95;;;10.80;99.90;;;;;;5058738;28;20044;-36
2023/10/21 05:59:38;;;;;;;14.88;6.68;;;10.80;99.90;;;;;;5066625;28;20143;-35
2023/10/21 06:02:04;;;;;;;12.23;6.28;;;10.80;99.90;;;;;;5054132;28;20486;-36
2023/10/21 06:04:31;;;;;;;16.08;6.97;;;10.80;99.90;;;;;;5068711;28;20062;-35
2023/10/21 06:06:57;;;;;;;16.20;7.25;;;10.80;99.90;;;;;;5046502;28;20222;-35
2023/10/21 06:09:23;;;;;;;15.95;7.05;;;10.80;99.90;;;;;;5062685;28;20040;-35
2023/10/21 06:11:50;;;;;;;13.32;6.32;;;10.90;99.90;;;;;;5061634;28;20056;-35
2023/10/21 06:14:20;;;;;;;14.30;7.40;;;10.90;99.90;;;;;;5062943;28;20083;-35
2023/10/21 06:16:45;;;;;;;13.02;6.43;;;11.00;99.90;;;;;;5065145;28;20087;-35
2023/10/21 06:19:11;;;;;;;14.82;6.95;;;11.00;99.90;;;;;;5064322;28;20151;-35
2023/10/21 06:21:37;;;;;;;16.08;7.03;;;11.10;99.90;;;;;;5066811;28;20064;-35
2023/10/21 06:24:03;;;;;;;11.13;6.60;;;11.10;99.90;;;;;;5058284;28;20516;-35
2023/10/21 06:26:32;;;;;;;12.40;6.75;;;11.20;99.90;;;;;;5064917;28;20059;-35
2023/10/21 06:28:59;;;;;;;13.93;6.88;;;11.20;99.90;;;;;;5062900;28;20051;-35
2023/10/21 06:31:26;;;;;;;18.42;7.40;;;11.20;99.90;;;;;;5060192;28;20063;-35
2023/10/21 06:33:53;;;;;;;13.00;6.68;;;11.20;99.90;;;;;;5053231;28;20057;-35
2023/10/21 06:36:19;;;;;;;13.40;6.50;;;11.20;99.90;;;;;;5047949;28;20075;-35
2023/10/21 06:38:44;;;;;;;16.33;7.63;;;11.20;99.90;;;;;;5053838;28;20064;-35
2023/10/21 06:41:10;;;;;;;12.90;7.20;;;11.30;99.90;;;;;;5059534;28;20064;-35
2023/10/21 06:43:40;;;;;;;13.93;6.70;;;11.30;99.90;;;;;;5043536;28;20051;-35
2023/10/21 06:46:06;;;;;;;17.00;6.85;;;11.30;99.90;;;;;;5042105;28;20461;-34
2023/10/21 06:48:32;;;;;;;12.93;6.00;;;11.30;99.90;;;;;;5046245;28;20056;-35
2023/10/21 06:50:58;;;;;;;12.40;6.00;;;11.30;99.90;;;;;;5052414;28;20093;-35
2023/10/21 06:53:26;;;;;;;10.40;5.25;;;11.40;99.90;;;;;;5049141;28;20064;-36
2023/10/21 06:55:52;;;;;;;14.35;5.95;;;11.40;99.90;;;;;;5050897;28;20041;-35
2023/10/21 06:58:18;;;;;;;11.65;6.03;;;11.40;99.90;;;;;;5055465;28;20055;-35
2023/10/21 07:00:43;;;;;;;11.43;6.15;;;11.40;99.90;;;;;;5061981;28;20052;-35
2023/10/21 07:03:10;;;;;;;11.77;6.00;;;11.50;99.90;;;;;;5062592;28;20472;-35
2023/10/21 07:05:35;;;;;;;12.23;6.70;;;11.40;99.90;;;;;;5040143;28;20049;-35
2023/10/21 07:08:02;;;;;;;11.80;6.60;;;11.50;99.90;;;;;;5065271;28;20051;-35
2023/10/21 07:10:30;;;;;;;9.45;4.97;;;11.50;99.90;;;;;;5051538;28;20056;-34
2023/10/21 07:12:58;;;;;;;10.48;6.05;;;11.50;99.90;;;;;;5053978;28;20127;-35
2023/10/21 07:15:33;;;;;;;10.70;6.15;;;11.60;99.90;;;;;;5061290;28;20552;-35
2023/10/21 07:17:59;;;;;;;10.40;5.60;;;11.60;99.90;;;;;;5063066;28;20127;-35
2023/10/21 07:20:26;;;;;;;10.68;6.00;;;11.60;99.90;;;;;;5063069;28;20147;-35
2023/10/21 07:22:52;;;;;;;11.90;5.80;;;11.70;99.90;;;;;;5054352;28;20099;-37
2023/10/21 07:25:18;;;;;;;10.88;4.95;;;11.70;99.90;;;;;;5085337;28;20147;-36
2023/10/21 07:27:45;;;;;;;10.40;5.13;;;11.70;99.90;;;;;;5060541;28;20139;-35
2023/10/21 07:30:11;;;;;;;10.43;5.18;;;11.70;99.90;;;;;;5083993;28;20059;-35
2023/10/21 07:32:37;;;;;;;11.55;5.75;;;11.70;99.90;;;;;;5074823;28;20447;-35
2023/10/21 07:35:03;;;;;;;13.52;5.70;;;11.70;99.90;;;;;;5075830;28;20040;-35
2023/10/21 07:37:30;;;;;;;9.80;5.63;;;11.70;99.90;;;;;;5080999;28;20047;-35
2023/10/21 07:39:58;;;;;;;14.13;5.55;;;11.70;99.90;;;;;;5080214;28;20549;-35
2023/10/21 07:42:24;;;;;;;9.32;5.13;;;11.70;99.90;;;;;;5082589;28;20056;-36
2023/10/21 07:44:50;;;;;;;13.27;5.80;;;11.70;99.90;;;;;;5061929;28;20482;-35
2023/10/21 07:47:15;;;;;;;13.55;5.13;;;11.70;99.90;;;;;;5049605;28;20114;-37
2023/10/21 07:49:41;;;;;;;9.32;5.53;;;11.80;99.90;;;;;;5070929;28;20589;-33
2023/10/21 07:52:06;;;;;;;10.70;5.07;;;11.80;99.90;;;;;;5082311;28;20126;-34
2023/10/21 07:54:32;;;;;;;8.98;5.32;;;11.90;99.90;;;;;;5078307;28;20056;-36
2023/10/21 07:56:58;;;;;;;11.85;5.40;;;11.90;99.90;;;;;;5081437;28;20139;-34
2023/10/21 07:59:27;;;;;;;9.80;5.20;;;12.00;99.90;;;;;;5068301;28;20779;-35
2023/10/21 08:01:54;;;;;;;11.90;4.68;;;12.00;99.90;;;;;;5069936;28;20059;-34
2023/10/21 08:04:20;;;;;;;10.85;5.10;;;12.10;99.90;;;;;;5057191;28;20109;-35
2023/10/21 08:06:46;;;;;;;11.32;4.82;;;12.20;99.90;;;;;;5085085;28;20052;-34
2023/10/21 08:09:15;;;;;;;8.68;4.30;;;12.30;99.90;;;;;;5073204;28;20041;-34
2023/10/21 08:11:44;;;;;;;9.02;4.60;;;12.40;99.90;;;;;;5085619;28;20070;-34
2023/10/21 08:14:13;;;;;;;8.48;4.50;;;12.40;99.90;;;;;;5061806;28;20588;-34
2023/10/21 08:16:38;;;;;;;11.77;4.20;;;12.50;99.90;;;;;;5059436;28;20055;-34
2023/10/21 08:19:05;;;;;;;11.00;4.88;;;12.50;99.90;;;;;;5082814;28;20052;-34
2023/10/21 08:21:31;;;;;;;9.18;4.28;;;12.60;99.90;;;;;;5082708;28;20065;-33
2023/10/21 08:23:57;;;;;;;7.50;4.13;;;12.70;99.90;;;;;;5055692;28;20186;-38
2023/10/21 08:26:24;;;;;;;12.70;4.97;;;12.70;99.90;;;;;;5064964;28;20045;-35
2023/10/21 08:28:50;;;;;;;9.63;4.28;;;12.80;99.90;;;;;;5056890;28;20479;-35
2023/10/21 08:31:15;;;;;;;10.45;4.95;;;13.00;99.90;;;;;;5065243;28;20060;-35
2023/10/21 08:33:41;;;;;;;9.65;3.92;;;13.00;99.90;;;;;;5063992;28;20057;-40
2023/10/21 08:36:18;;;;;;;10.88;4.15;;;13.10;99.90;;;;;;5066139;28;20048;-34
2023/10/21 08:38:44;;;;;;;8.02;3.97;;;13.20;99.90;;;;;;5052097;28;20129;-35
2023/10/21 08:41:12;;;;;;;10.50;3.80;;;13.30;99.90;;;;;;5052017;28;20572;-35
2023/10/21 08:43:41;;;;;;;10.65;3.92;;;13.30;99.90;;;;;;5063699;28;20044;-35
2023/10/21 08:46:08;;;;;;;8.07;3.28;;;13.40;99.90;;;;;;5057082;28;20067;-35
2023/10/21 08:48:34;;;;;;;6.53;3.75;;;13.50;99.90;;;;;;5045677;28;20045;-36
2023/10/21 08:51:02;;;;;;;6.43;3.22;;;13.60;99.90;;;;;;5044304;28;20432;-36
2023/10/21 08:53:31;;;;;;;8.10;2.80;;;13.70;99.90;;;;;;5035697;28;20111;-35
2023/10/21 08:55:57;;;;;;;10.55;3.65;;;13.80;99.90;;;;;;5049555;28;20052;-35
2023/10/21 08:58:28;;;;;;;5.22;3.10;;;13.90;99.90;;;;;;5048887;28;20252;-35
2023/10/21 09:00:54;;;;;;;6.80;3.42;;;13.90;99.90;;;;;;5056236;28;20052;-35
2023/10/21 09:03:20;;;;;;;8.00;2.60;;;13.90;99.90;;;;;;5040549;28;20094;-35
2023/10/21 09:06:06;;;;;;;5.32;2.63;;;13.80;99.90;;;;;;5060153;28;20074;-35
2023/10/21 09:08:34;;;;;;;5.82;2.45;;;13.80;99.90;;;;;;5058766;28;20052;-35
2023/10/21 09:11:00;;;;;;;3.80;1.50;;;13.80;99.90;;;;;;5054692;28;20506;-36
2023/10/21 09:13:35;;;;;;;4.30;2.53;;;13.70;99.90;;;;;;5055975;28;20048;-35
2023/10/21 09:16:04;;;;;;;6.63;2.20;;;13.70;99.90;;;;;;5054535;28;20114;-36
2023/10/21 09:18:32;;;;;;;6.82;2.63;;;13.70;99.90;;;;;;5054923;28;20075;-36
2023/10/21 09:20:58;;;;;;;6.35;2.17;;;13.70;99.90;;;;;;5058501;28;20052;-35
2023/10/21 09:23:24;;;;;;;5.53;2.55;;;13.60;99.90;;;;;;5049332;28;20515;-35
2023/10/21 09:25:51;;;;;;;4.68;2.05;;;13.60;99.90;;;;;;5067444;28;20052;-35
2023/10/21 09:28:21;;;;;;;4.75;2.33;;;13.60;99.90;;;;;;5067077;28;20491;-36
2023/10/21 09:30:57;;;;;;;3.50;1.73;;;13.60;99.90;;;;;;5058804;28;20518;-35
2023/10/21 09:33:25;;;;;;;7.22;2.25;;;13.60;99.90;;;;;;5070492;28;20044;-34
2023/10/21 09:36:04;;;;;;;4.78;1.77;;;13.60;99.90;;;;;;5060486;28;20049;-35
2023/10/21 09:38:37;;;;;;;5.25;1.90;;;13.60;99.90;;;;;;5058252;28;20118;-35
2023/10/21 09:41:09;;;;;;;2.90;1.40;;;13.60;99.90;;;;;;5062045;28;20099;-35
2023/10/21 09:43:41;;;;;;;3.55;1.77;;;13.60;99.90;;;;;;5044052;28;20053;-35
2023/10/21 09:46:12;;;;;;;5.63;1.80;;;13.60;99.90;;;;;;5058248;28;20881;-35
2023/10/21 09:48:43;;;;;;;3.28;1.80;;;13.60;99.90;;;;;;5040400;28;20135;-40
2023/10/21 09:51:13;;;;;;;5.70;1.75;;;13.60;99.90;;;;;;5042603;28;20045;-35
2023/10/21 09:53:45;;;;;;;3.28;1.45;;;13.60;99.90;;;;;;5054452;28;20073;-35
2023/10/21 09:56:14;;;;;;;3.65;1.48;;;13.60;99.90;;;;;;5067031;28;20048;-35
2023/10/21 09:58:41;;;;;;;4.15;1.40;;;13.50;99.90;;;;;;5040789;28;20102;-35
2023/10/21 10:01:10;;;;;;;1.48;0.50;;;13.50;99.90;;;;;;5061988;28;20117;-34
2023/10/21 10:03:37;;;;;;;3.38;0.57;;;13.50;99.90;;;;;;5066191;28;20052;-34
2023/10/21 10:06:04;;;;;;;0.80;0.30;;;13.50;99.90;;;;;;5059629;28;20438;-35
2023/10/21 10:08:34;;;;;;;2.28;0.40;;;13.50;99.90;;;;;;5062550;28;20041;-35
2023/10/21 10:11:10;;;;;;;1.40;0.38;;;13.50;99.90;;;;;;5062200;28;20057;-35
2023/10/21 10:13:42;;;;;;;1.42;0.40;;;13.60;99.90;;;;;;5059688;28;20053;-35
2023/10/21 10:16:24;;;;;;;0.97;0.30;;;13.70;99.90;;;;;;5065233;28;20059;-35
2023/10/21 10:18:50;;;;;;;;;;;13.80;99.90;;;;;;5062703;28;20271;-34
2023/10/21 10:21:18;;;;;;;2.60;0.43;;;13.90;99.90;;;;;;5062984;28;19927;-35
2023/10/21 10:23:58;;;;;;;1.48;0.40;;;14.00;99.90;;;;;;5064967;28;20043;-35
2023/10/21 10:26:31;;;;;;;2.58;0.40;;;14.10;99.90;;;;;;5078654;28;20048;-35
2023/10/21 10:28:59;;;;;;;4.40;0.47;;;14.10;99.90;;;;;;5053371;28;20521;-35
2023/10/21 10:31:26;;;;;;;0.82;0.40;;;14.10;99.90;;;;;;5073362;28;20154;-35
2023/10/21 10:33:52;;;;;;;2.78;0.45;;;14.00;99.90;;;;;;5072678;28;20048;-35
2023/10/21 10:36:30;;;;;;;1.08;0.40;;;14.00;99.90;;;;;;5053571;28;20052;-35
2023/10/21 10:38:56;;;;;;;1.27;0.30;;;14.10;99.90;;;;;;5070122;28;20402;-35
2023/10/21 10:41:22;;;;;;;1.20;0.30;;;14.10;99.90;;;;;;5069824;28;20052;-35
2023/10/21 10:44:02;;;;;;;1.90;0.43;;;14.10;99.90;;;;;;5062748;28;20135;-35
2023/10/21 10:46:29;;;;;;;1.75;0.40;;;14.10;99.90;;;;;;5062073;28;20113;-35
2023/10/21 10:48:57;;;;;;;1.70;0.30;;;14.10;99.90;;;;;;5058573;28;20048;-35
2023/10/21 10:51:27;;;;;;;1.85;0.25;;;14.10;99.90;;;;;;5057576;28;20267;-34
2023/10/21 10:53:58;;;;;;;2.65;0.32;;;14.00;99.90;;;;;;5053758;28;20055;-37
2023/10/21 10:56:25;;;;;;;1.85;0.30;;;14.00;99.90;;;;;;5075912;28;20116;-35
2023/10/21 10:58:52;;;;;;;1.13;0.20;;;13.90;99.90;;;;;;5077756;28;20165;-34
2023/10/21 11:01:27;;;;;;;1.50;0.25;;;13.80;99.90;;;;;;5072764;28;20052;-34
2023/10/21 11:04:00;;;;;;;0.60;0.20;;;13.80;99.90;;;;;;5073271;28;20103;-34
2023/10/21 11:06:30;;;;;;;0.90;0.30;;;13.80;99.90;;;;;;5077541;28;20371;-34
2023/10/21 11:09:01;;;;;;;1.02;0.30;;;13.80;99.90;;;;;;5070671;28;20087;-34
2023/10/21 11:11:27;;;;;;;0.25;0.10;;;13.80;99.90;;;;;;5054828;28;20052;-34
2023/10/21 11:13:53;;;;;;;1.05;0.60;;;13.80;99.90;;;;;;5077226;28;20048;-35
2023/10/21 11:16:20;;;;;;;1.85;0.22;;;13.80;99.90;;;;;;5071802;28;20513;-39
2023/10/21 11:18:46;;;;;;;2.40;0.20;;;13.90;99.90;;;;;;5080886;28;20048;-34
2023/10/21 11:21:11;;;;;;;0.32;0.10;;;13.90;99.90;;;;;;5069386;28;20554;-34
2023/10/21 11:23:37;;;;;;;0.70;0.25;;;14.00;99.90;;;;;;5073553;28;20054;-34
2023/10/21 11:26:07;;;;;;;0.85;0.10;;;14.10;99.90;;;;;;5070898;28;20509;-34
2023/10/21 11:28:36;;;;;;;1.77;0.30;;;14.20;99.90;;;;;;5077803;28;20134;-34
2023/10/21 11:31:02;;;;;;;0.47;0.10;;;14.30;99.90;;;;;;5075200;28;20075;-34
2023/10/21 11:33:28;;;;;;;1.40;0.15;;;14.30;99.90;;;;;;5070918;28;20135;-34
2023/10/21 11:35:53;;;;;;;1.85;0.20;;;14.50;99.90;;;;;;5075155;28;20045;-34
2023/10/21 11:38:21;;;;;;;0.45;0.20;;;14.50;99.90;;;;;;5083204;28;20456;-34
2023/10/21 11:40:46;;;;;;;1.27;0.20;;;14.70;99.90;;;;;;5071841;28;20063;-34
2023/10/21 11:43:14;;;;;;;0.70;0.10;;;14.80;99.90;;;;;;5070142;28;20494;-35
2023/10/21 11:45:41;;;;;;;0.20;0.10;;;15.00;99.90;;;;;;5063402;28;20044;-33
2023/10/21 11:48:10;;;;;;;2.20;0.20;;;15.00;99.90;;;;;;5057176;28;20052;-34
2023/10/21 11:50:38;;;;;;;0.90;0.22;;;15.20;99.90;;;;;;5066655;28;20057;-34
2023/10/21 11:53:06;;;;;;;1.98;0.30;;;15.40;99.90;;;;;;5069886;28;21637;-34
2023/10/21 11:58:54;;;;;;;2.67;0.28;;;15.90;99.90;;;;;;5068696;28;20056;-52
2023/10/21 12:22:53;;;;;;;2.80;0.20;;;16.60;99.90;;;;;;5083967;28;20540;-39
2023/10/21 12:43:16;;;;;;;0.70;0.20;;;16.10;99.90;;;;;;5083274;28;20088;-35
2023/10/21 12:45:39;;;;;;;3.50;0.30;;;16.00;99.90;;;;;;5075350;28;20056;-34
2023/10/21 12:48:08;;;;;;;0.90;0.30;;;16.10;99.90;;;;;;5080788;28;20149;-35
2023/10/21 12:50:34;;;;;;;2.03;0.43;;;16.20;99.90;;;;;;5059651;28;20048;-34
2023/10/21 12:53:01;;;;;;;1.55;0.20;;;16.40;99.90;;;;;;5085834;28;20059;-35
2023/10/21 12:55:26;;;;;;;1.63;0.20;;;16.40;99.90;;;;;;5075603;28;20048;-34
2023/10/21 12:57:53;;;;;;;0.93;0.20;;;16.30;99.90;;;;;;5076056;28;20418;-35
2023/10/21 13:00:20;;;;;;;2.00;0.25;;;16.10;99.90;;;;;;5062561;28;20052;-34
2023/10/21 13:02:46;;;;;;;2.78;0.35;;;16.30;99.90;;;;;;5077372;28;20494;-35
2023/10/21 13:05:13;;;;;;;0.63;0.10;;;16.60;99.90;;;;;;5069789;28;20486;-35
2023/10/21 13:07:39;;;;;;;0.80;0.30;;;16.60;99.90;;;;;;5067382;28;20051;-34
2023/10/21 13:10:09;;;;;;;1.90;0.22;;;16.70;99.90;;;;;;5077011;28;20040;-35
2023/10/21 13:12:36;;;;;;;3.67;0.40;;;16.60;99.90;;;;;;5065109;28;20510;-35
2023/10/21 13:15:09;;;;;;;0.85;0.20;;;16.60;99.90;;;;;;5075703;28;20052;-35
2023/10/21 13:17:35;;;;;;;1.15;0.20;;;17.10;99.90;;;;;;5077829;28;20047;-34
2023/10/21 13:20:01;;;;;;;0.80;0.30;;;18.20;99.90;;;;;;5063725;28;20482;-35
2023/10/21 13:22:27;;;;;;;2.38;0.30;;;19.10;99.90;;;;;;5055772;28;20063;-34
2023/10/21 13:24:52;;;;;;;1.48;0.20;;;19.80;99.90;;;;;;5062228;28;20065;-37